sensor_id;sensor_type;location;lat;lon;timestamp;P1;durP1;ratioP1;P2;durP2;ratioP2
33495;SDS011;19836;55.812;37.560;2024-02-15T01:21:56;7.60;;;4.30;;
33495;SDS011;19836;55.812;37.560;2024-02-15T03:03:26;7.07;;;3.67;;
33495;SDS011;19836;55.812;37.560;2024-02-15T03:08:44;9.27;;;4.45;;
33495;SDS011;19836;55.812;37.560;2024-02-15T03:16:16;4.78;;;2.45;;
33495;SDS011;19836;55.812;37.560;2024-02-15T03:18:42;6.78;;;4.07;;
33495;SDS011;19836;55.812;37.560;2024-02-15T03:21:09;5.30;;;3.17;;
33495;SDS011;19836;55.812;37.560;2024-02-15T03:23:38;4.78;;;2.60;;
33495;SDS011;19836;55.812;37.560;2024-02-15T03:26:07;6.00;;;3.20;;
33495;SDS011;19836;55.812;37.560;2024-02-15T03:28:34;6.60;;;4.22;;
33495;SDS011;19836;55.812;37.560;2024-02-15T03:31:02;8.05;;;4.35;;
33495;SDS011;19836;55.812;37.560;2024-02-15T03:33:28;8.07;;;5.00;;
33495;SDS011;19836;55.812;37.560;2024-02-15T03:35:59;5.55;;;3.03;;
33495;SDS011;19836;55.812;37.560;2024-02-15T03:38:26;6.20;;;3.58;;
33495;SDS011;19836;55.812;37.560;2024-02-15T03:40:59;8.73;;;4.13;;
33495;SDS011;19836;55.812;37.560;2024-02-15T03:43:50;9.88;;;4.43;;
33495;SDS011;19836;55.812;37.560;2024-02-15T03:50:45;7.35;;;3.85;;
33495;SDS011;19836;55.812;37.560;2024-02-15T03:53:13;10.02;;;4.15;;
33495;SDS011;19836;55.812;37.560;2024-02-15T03:55:41;8.77;;;5.05;;
33495;SDS011;19836;55.812;37.560;2024-02-15T03:58:06;3.70;;;2.20;;
33495;SDS011;19836;55.812;37.560;2024-02-15T04:00:34;11.40;;;5.20;;
33495;SDS011;19836;55.812;37.560;2024-02-15T04:03:00;9.60;;;5.25;;
33495;SDS011;19836;55.812;37.560;2024-02-15T04:05:26;6.68;;;3.97;;
33495;SDS011;19836;55.812;37.560;2024-02-15T04:07:55;4.55;;;3.38;;
33495;SDS011;19836;55.812;37.560;2024-02-15T04:10:33;7.75;;;4.60;;
33495;SDS011;19836;55.812;37.560;2024-02-15T04:13:05;10.73;;;4.57;;
33495;SDS011;19836;55.812;37.560;2024-02-15T04:15:35;7.78;;;4.45;;
33495;SDS011;19836;55.812;37.560;2024-02-15T04:18:02;8.98;;;4.20;;
33495;SDS011;19836;55.812;37.560;2024-02-15T04:20:29;10.73;;;5.63;;
33495;SDS011;19836;55.812;37.560;2024-02-15T04:22:54;6.88;;;4.25;;
33495;SDS011;19836;55.812;37.560;2024-02-15T04:25:23;10.35;;;5.28;;
33495;SDS011;19836;55.812;37.560;2024-02-15T04:27:53;7.90;;;4.60;;
33495;SDS011;19836;55.812;37.560;2024-02-15T04:30:20;9.52;;;5.18;;
33495;SDS011;19836;55.812;37.560;2024-02-15T04:32:47;8.32;;;5.13;;
33495;SDS011;19836;55.812;37.560;2024-02-15T04:35:14;6.30;;;4.13;;
33495;SDS011;19836;55.812;37.560;2024-02-15T05:10:54;7.18;;;4.75;;
33495;SDS011;19836;55.812;37.560;2024-02-15T05:13:24;8.02;;;5.07;;
33495;SDS011;19836;55.812;37.560;2024-02-15T05:15:50;7.68;;;3.90;;
33495;SDS011;19836;55.812;37.560;2024-02-15T05:18:16;8.07;;;4.47;;
33495;SDS011;19836;55.812;37.560;2024-02-15T05:20:42;10.02;;;4.80;;
33495;SDS011;19836;55.812;37.560;2024-02-15T05:23:08;11.27;;;5.57;;
33495;SDS011;19836;55.812;37.560;2024-02-15T05:25:34;7.30;;;5.18;;
33495;SDS011;19836;55.812;37.560;2024-02-15T05:28:01;8.18;;;4.35;;
33495;SDS011;19836;55.812;37.560;2024-02-15T05:30:27;8.48;;;4.55;;
33495;SDS011;19836;55.812;37.560;2024-02-15T05:32:57;11.00;;;4.32;;
33495;SDS011;19836;55.812;37.560;2024-02-15T05:38:16;9.35;;;4.60;;
33495;SDS011;19836;55.812;37.560;2024-02-15T05:40:43;7.80;;;4.55;;
33495;SDS011;19836;55.812;37.560;2024-02-15T05:43:09;6.00;;;3.88;;
33495;SDS011;19836;55.812;37.560;2024-02-15T05:45:35;7.57;;;5.43;;
33495;SDS011;19836;55.812;37.560;2024-02-15T05:48:03;6.18;;;3.67;;
33495;SDS011;19836;55.812;37.560;2024-02-15T05:50:32;8.52;;;4.32;;
33495;SDS011;19836;55.812;37.560;2024-02-15T05:52:58;9.38;;;5.15;;
33495;SDS011;19836;55.812;37.560;2024-02-15T05:55:24;7.55;;;4.05;;
33495;SDS011;19836;55.812;37.560;2024-02-15T05:57:52;8.27;;;5.15;;
33495;SDS011;19836;55.812;37.560;2024-02-15T06:00:18;8.98;;;4.35;;
33495;SDS011;19836;55.812;37.560;2024-02-15T06:02:45;7.55;;;4.80;;
33495;SDS011;19836;55.812;37.560;2024-02-15T06:05:10;10.80;;;4.18;;
33495;SDS011;19836;55.812;37.560;2024-02-15T06:07:37;11.90;;;4.93;;
33495;SDS011;19836;55.812;37.560;2024-02-15T06:10:03;9.23;;;5.28;;
33495;SDS011;19836;55.812;37.560;2024-02-15T06:12:29;9.57;;;4.88;;
33495;SDS011;19836;55.812;37.560;2024-02-15T06:14:55;8.68;;;4.50;;
33495;SDS011;19836;55.812;37.560;2024-02-15T06:17:21;9.85;;;4.85;;
33495;SDS011;19836;55.812;37.560;2024-02-15T06:19:47;12.50;;;4.60;;
33495;SDS011;19836;55.812;37.560;2024-02-15T06:22:13;10.75;;;5.22;;
33495;SDS011;19836;55.812;37.560;2024-02-15T06:25:14;7.53;;;4.25;;
33495;SDS011;19836;55.812;37.560;2024-02-15T06:28:32;6.70;;;3.55;;
33495;SDS011;19836;55.812;37.560;2024-02-15T06:31:50;4.25;;;2.83;;
33495;SDS011;19836;55.812;37.560;2024-02-15T06:34:35;8.50;;;4.53;;
33495;SDS011;19836;55.812;37.560;2024-02-15T06:37:50;7.78;;;4.63;;
33495;SDS011;19836;55.812;37.560;2024-02-15T06:40:57;8.65;;;5.03;;
33495;SDS011;19836;55.812;37.560;2024-02-15T06:43:23;8.68;;;4.55;;
33495;SDS011;19836;55.812;37.560;2024-02-15T06:45:49;7.78;;;4.72;;
33495;SDS011;19836;55.812;37.560;2024-02-15T06:48:16;8.18;;;3.83;;
33495;SDS011;19836;55.812;37.560;2024-02-15T06:50:43;7.25;;;4.70;;
33495;SDS011;19836;55.812;37.560;2024-02-15T06:53:09;11.07;;;4.80;;
33495;SDS011;19836;55.812;37.560;2024-02-15T06:55:37;8.18;;;4.57;;
33495;SDS011;19836;55.812;37.560;2024-02-15T06:58:04;6.38;;;3.20;;
33495;SDS011;19836;55.812;37.560;2024-02-15T07:00:31;8.50;;;4.95;;
33495;SDS011;19836;55.812;37.560;2024-02-15T07:02:57;7.28;;;4.28;;
33495;SDS011;19836;55.812;37.560;2024-02-15T07:05:23;7.57;;;4.10;;
33495;SDS011;19836;55.812;37.560;2024-02-15T07:07:49;9.50;;;5.07;;
33495;SDS011;19836;55.812;37.560;2024-02-15T07:10:15;6.53;;;3.72;;
33495;SDS011;19836;55.812;37.560;2024-02-15T07:12:43;8.80;;;4.93;;
33495;SDS011;19836;55.812;37.560;2024-02-15T07:15:10;9.05;;;4.85;;
33495;SDS011;19836;55.812;37.560;2024-02-15T07:17:37;8.93;;;4.25;;
33495;SDS011;19836;55.812;37.560;2024-02-15T07:20:04;9.57;;;4.55;;
33495;SDS011;19836;55.812;37.560;2024-02-15T07:22:30;9.73;;;4.80;;
33495;SDS011;19836;55.812;37.560;2024-02-15T07:25:00;6.90;;;4.30;;
33495;SDS011;19836;55.812;37.560;2024-02-15T07:27:27;10.55;;;5.05;;
33495;SDS011;19836;55.812;37.560;2024-02-15T07:29:53;8.15;;;4.15;;
33495;SDS011;19836;55.812;37.560;2024-02-15T07:32:21;9.75;;;5.55;;
33495;SDS011;19836;55.812;37.560;2024-02-15T07:34:47;10.45;;;4.40;;
33495;SDS011;19836;55.812;37.560;2024-02-15T07:37:13;13.93;;;6.88;;
33495;SDS011;19836;55.812;37.560;2024-02-15T07:39:41;9.63;;;5.57;;
33495;SDS011;19836;55.812;37.560;2024-02-15T07:42:07;10.45;;;5.88;;
33495;SDS011;19836;55.812;37.560;2024-02-15T07:44:38;10.60;;;5.53;;
33495;SDS011;19836;55.812;37.560;2024-02-15T07:47:04;8.35;;;4.30;;
33495;SDS011;19836;55.812;37.560;2024-02-15T07:49:30;8.80;;;4.90;;
33495;SDS011;19836;55.812;37.560;2024-02-15T07:51:56;10.63;;;5.35;;
33495;SDS011;19836;55.812;37.560;2024-02-15T07:54:23;8.65;;;5.32;;
33495;SDS011;19836;55.812;37.560;2024-02-15T07:56:49;7.95;;;4.07;;
33495;SDS011;19836;55.812;37.560;2024-02-15T07:59:15;10.50;;;5.28;;
33495;SDS011;19836;55.812;37.560;2024-02-15T08:01:44;8.10;;;4.97;;
33495;SDS011;19836;55.812;37.560;2024-02-15T08:04:12;13.20;;;6.70;;
33495;SDS011;19836;55.812;37.560;2024-02-15T08:06:38;8.18;;;5.68;;
33495;SDS011;19836;55.812;37.560;2024-02-15T08:09:04;9.15;;;5.00;;
33495;SDS011;19836;55.812;37.560;2024-02-15T08:11:31;8.65;;;4.30;;
33495;SDS011;19836;55.812;37.560;2024-02-15T08:13:57;8.95;;;5.32;;
33495;SDS011;19836;55.812;37.560;2024-02-15T08:16:25;9.15;;;5.13;;
33495;SDS011;19836;55.812;37.560;2024-02-15T08:18:54;8.10;;;4.93;;
33495;SDS011;19836;55.812;37.560;2024-02-15T08:23:58;9.00;;;3.92;;
33495;SDS011;19836;55.812;37.560;2024-02-15T08:26:26;9.40;;;5.35;;
33495;SDS011;19836;55.812;37.560;2024-02-15T08:28:52;14.02;;;5.22;;
33495;SDS011;19836;55.812;37.560;2024-02-15T08:31:18;11.38;;;6.30;;
33495;SDS011;19836;55.812;37.560;2024-02-15T08:33:46;11.88;;;5.45;;
33495;SDS011;19836;55.812;37.560;2024-02-15T08:36:13;8.25;;;4.88;;
33495;SDS011;19836;55.812;37.560;2024-02-15T08:38:39;10.10;;;5.65;;
33495;SDS011;19836;55.812;37.560;2024-02-15T08:41:06;10.13;;;4.70;;
33495;SDS011;19836;55.812;37.560;2024-02-15T08:43:33;10.38;;;5.30;;
33495;SDS011;19836;55.812;37.560;2024-02-15T08:46:00;10.07;;;5.53;;
33495;SDS011;19836;55.812;37.560;2024-02-15T08:48:31;10.75;;;6.10;;
33495;SDS011;19836;55.812;37.560;2024-02-15T08:50:57;14.85;;;6.45;;
33495;SDS011;19836;55.812;37.560;2024-02-15T08:53:24;11.70;;;5.60;;
33495;SDS011;19836;55.812;37.560;2024-02-15T08:55:50;9.73;;;4.55;;
33495;SDS011;19836;55.812;37.560;2024-02-15T08:58:18;8.43;;;5.35;;
33495;SDS011;19836;55.812;37.560;2024-02-15T09:00:46;9.93;;;5.68;;
33495;SDS011;19836;55.812;37.560;2024-02-15T09:03:12;10.90;;;5.68;;
33495;SDS011;19836;55.812;37.560;2024-02-15T09:05:39;8.95;;;5.18;;
33495;SDS011;19836;55.812;37.560;2024-02-15T09:08:06;11.02;;;6.10;;
33495;SDS011;19836;55.812;37.560;2024-02-15T09:10:32;10.48;;;5.35;;
33495;SDS011;19836;55.812;37.560;2024-02-15T09:12:58;14.48;;;5.63;;
33495;SDS011;19836;55.812;37.560;2024-02-15T09:15:24;12.18;;;6.00;;
33495;SDS011;19836;55.812;37.560;2024-02-15T09:17:50;9.40;;;5.55;;
33495;SDS011;19836;55.812;37.560;2024-02-15T09:20:17;11.45;;;5.25;;
33495;SDS011;19836;55.812;37.560;2024-02-15T09:22:54;10.95;;;5.22;;
33495;SDS011;19836;55.812;37.560;2024-02-15T09:25:20;13.20;;;4.75;;
33495;SDS011;19836;55.812;37.560;2024-02-15T09:27:50;10.10;;;5.45;;
33495;SDS011;19836;55.812;37.560;2024-02-15T09:30:17;9.45;;;5.65;;
33495;SDS011;19836;55.812;37.560;2024-02-15T09:32:43;11.98;;;5.97;;
33495;SDS011;19836;55.812;37.560;2024-02-15T09:35:10;8.18;;;5.30;;
33495;SDS011;19836;55.812;37.560;2024-02-15T09:37:38;9.85;;;5.47;;
33495;SDS011;19836;55.812;37.560;2024-02-15T09:40:14;8.88;;;5.35;;
33495;SDS011;19836;55.812;37.560;2024-02-15T09:42:42;13.60;;;5.50;;
33495;SDS011;19836;55.812;37.560;2024-02-15T09:45:12;9.25;;;5.78;;
33495;SDS011;19836;55.812;37.560;2024-02-15T09:47:44;11.02;;;6.25;;
33495;SDS011;19836;55.812;37.560;2024-02-15T09:50:14;10.55;;;5.75;;
33495;SDS011;19836;55.812;37.560;2024-02-15T09:52:45;12.85;;;5.90;;
33495;SDS011;19836;55.812;37.560;2024-02-15T09:55:18;10.88;;;5.47;;
33495;SDS011;19836;55.812;37.560;2024-02-15T09:57:46;11.02;;;6.20;;
33495;SDS011;19836;55.812;37.560;2024-02-15T10:00:12;10.32;;;5.60;;
33495;SDS011;19836;55.812;37.560;2024-02-15T10:02:43;10.55;;;6.00;;
33495;SDS011;19836;55.812;37.560;2024-02-15T10:05:10;9.65;;;4.95;;
33495;SDS011;19836;55.812;37.560;2024-02-15T10:07:39;9.43;;;5.20;;
33495;SDS011;19836;55.812;37.560;2024-02-15T10:10:27;8.55;;;4.88;;
33495;SDS011;19836;55.812;37.560;2024-02-15T10:12:53;11.38;;;6.15;;
33495;SDS011;19836;55.812;37.560;2024-02-15T10:15:39;14.85;;;7.57;;
33495;SDS011;19836;55.812;37.560;2024-02-15T10:18:09;9.68;;;5.97;;
33495;SDS011;19836;55.812;37.560;2024-02-15T10:20:37;10.98;;;5.07;;
33495;SDS011;19836;55.812;37.560;2024-02-15T10:25:34;10.57;;;5.68;;
33495;SDS011;19836;55.812;37.560;2024-02-15T10:28:10;11.02;;;5.40;;
33495;SDS011;19836;55.812;37.560;2024-02-15T10:30:42;9.27;;;5.38;;
33495;SDS011;19836;55.812;37.560;2024-02-15T10:33:09;13.63;;;6.45;;
33495;SDS011;19836;55.812;37.560;2024-02-15T10:35:35;9.93;;;6.03;;
33495;SDS011;19836;55.812;37.560;2024-02-15T10:38:06;12.13;;;6.57;;
33495;SDS011;19836;55.812;37.560;2024-02-15T10:40:33;9.52;;;5.28;;
33495;SDS011;19836;55.812;37.560;2024-02-15T10:43:01;12.98;;;6.57;;
33495;SDS011;19836;55.812;37.560;2024-02-15T10:45:30;7.68;;;3.92;;
33495;SDS011;19836;55.812;37.560;2024-02-15T10:47:57;12.63;;;6.32;;
33495;SDS011;19836;55.812;37.560;2024-02-15T10:50:23;10.13;;;5.05;;
33495;SDS011;19836;55.812;37.560;2024-02-15T10:52:56;10.13;;;4.90;;
33495;SDS011;19836;55.812;37.560;2024-02-15T10:57:55;10.18;;;6.03;;
33495;SDS011;19836;55.812;37.560;2024-02-15T11:00:29;10.43;;;5.40;;
33495;SDS011;19836;55.812;37.560;2024-02-15T11:03:01;10.35;;;6.13;;
33495;SDS011;19836;55.812;37.560;2024-02-15T11:05:39;9.38;;;5.95;;
33495;SDS011;19836;55.812;37.560;2024-02-15T11:08:09;13.13;;;6.93;;
33495;SDS011;19836;55.812;37.560;2024-02-15T11:10:37;11.77;;;6.47;;
33495;SDS011;19836;55.812;37.560;2024-02-15T11:13:07;10.88;;;6.70;;
33495;SDS011;19836;55.812;37.560;2024-02-15T11:15:44;13.15;;;6.15;;
33495;SDS011;19836;55.812;37.560;2024-02-15T11:19:04;8.35;;;4.85;;
33495;SDS011;19836;55.812;37.560;2024-02-15T11:21:10;11.85;;;6.32;;
33495;SDS011;19836;55.812;37.560;2024-02-15T11:23:36;11.80;;;5.93;;
33495;SDS011;19836;55.812;37.560;2024-02-15T11:26:02;11.77;;;6.80;;
33495;SDS011;19836;55.812;37.560;2024-02-15T11:30:55;11.23;;;5.95;;
33495;SDS011;19836;55.812;37.560;2024-02-15T11:33:33;10.88;;;5.68;;
33495;SDS011;19836;55.812;37.560;2024-02-15T11:36:07;11.00;;;6.00;;
33495;SDS011;19836;55.812;37.560;2024-02-15T11:38:38;15.05;;;5.72;;
33495;SDS011;19836;55.812;37.560;2024-02-15T11:41:10;10.73;;;6.43;;
33495;SDS011;19836;55.812;37.560;2024-02-15T11:46:12;15.00;;;6.57;;
33495;SDS011;19836;55.812;37.560;2024-02-15T11:48:47;10.02;;;6.35;;
33495;SDS011;19836;55.812;37.560;2024-02-15T11:51:33;11.38;;;6.90;;
33495;SDS011;19836;55.812;37.560;2024-02-15T11:54:08;12.02;;;6.72;;
33495;SDS011;19836;55.812;37.560;2024-02-15T11:59:13;11.23;;;6.63;;
33495;SDS011;19836;55.812;37.560;2024-02-15T12:01:55;9.63;;;5.82;;
33495;SDS011;19836;55.812;37.560;2024-02-15T12:04:41;12.82;;;7.20;;
33495;SDS011;19836;55.812;37.560;2024-02-15T12:07:25;11.05;;;6.60;;
33495;SDS011;19836;55.812;37.560;2024-02-15T12:10:17;9.95;;;5.93;;
33495;SDS011;19836;55.812;37.560;2024-02-15T12:13:01;15.20;;;6.40;;
33495;SDS011;19836;55.812;37.560;2024-02-15T12:15:58;11.23;;;6.13;;
33495;SDS011;19836;55.812;37.560;2024-02-15T12:18:44;11.70;;;5.60;;
33495;SDS011;19836;55.812;37.560;2024-02-15T12:21:14;12.38;;;6.30;;
33495;SDS011;19836;55.812;37.560;2024-02-15T12:23:46;12.05;;;6.03;;
33495;SDS011;19836;55.812;37.560;2024-02-15T12:26:13;14.32;;;6.40;;
33495;SDS011;19836;55.812;37.560;2024-02-15T12:28:40;12.25;;;6.45;;
33495;SDS011;19836;55.812;37.560;2024-02-15T12:31:08;8.95;;;5.50;;
33495;SDS011;19836;55.812;37.560;2024-02-15T12:33:35;9.07;;;5.50;;
33495;SDS011;19836;55.812;37.560;2024-02-15T12:36:06;10.48;;;6.95;;
33495;SDS011;19836;55.812;37.560;2024-02-15T12:38:33;9.45;;;5.82;;
33495;SDS011;19836;55.812;37.560;2024-02-15T12:41:03;10.10;;;6.00;;
33495;SDS011;19836;55.812;37.560;2024-02-15T12:43:42;9.32;;;4.57;;
33495;SDS011;19836;55.812;37.560;2024-02-15T12:46:08;12.50;;;5.93;;
33495;SDS011;19836;55.812;37.560;2024-02-15T12:48:34;10.77;;;6.18;;
33495;SDS011;19836;55.812;37.560;2024-02-15T12:51:12;14.45;;;6.80;;
33495;SDS011;19836;55.812;37.560;2024-02-15T12:56:07;10.88;;;5.88;;
33495;SDS011;19836;55.812;37.560;2024-02-15T12:58:34;10.27;;;5.78;;
33495;SDS011;19836;55.812;37.560;2024-02-15T13:01:01;11.82;;;5.93;;
33495;SDS011;19836;55.812;37.560;2024-02-15T13:03:27;9.02;;;5.18;;
33495;SDS011;19836;55.812;37.560;2024-02-15T13:05:54;11.50;;;6.70;;
33495;SDS011;19836;55.812;37.560;2024-02-15T13:10:49;10.18;;;5.07;;
33495;SDS011;19836;55.812;37.560;2024-02-15T13:13:16;11.98;;;6.35;;
33495;SDS011;19836;55.812;37.560;2024-02-15T13:15:43;17.30;;;6.63;;
33495;SDS011;19836;55.812;37.560;2024-02-15T13:18:09;10.20;;;6.40;;
33495;SDS011;19836;55.812;37.560;2024-02-15T13:20:36;11.48;;;6.50;;
33495;SDS011;19836;55.812;37.560;2024-02-15T13:23:06;12.18;;;6.70;;
33495;SDS011;19836;55.812;37.560;2024-02-15T13:25:34;16.05;;;7.13;;
33495;SDS011;19836;55.812;37.560;2024-02-15T13:28:02;12.82;;;6.75;;
33495;SDS011;19836;55.812;37.560;2024-02-15T13:30:31;11.83;;;5.87;;
33495;SDS011;19836;55.812;37.560;2024-02-15T13:32:59;12.32;;;5.57;;
33495;SDS011;19836;55.812;37.560;2024-02-15T13:35:27;11.40;;;5.93;;
33495;SDS011;19836;55.812;37.560;2024-02-15T13:37:54;13.68;;;6.93;;
33495;SDS011;19836;55.812;37.560;2024-02-15T13:40:20;11.73;;;6.28;;
33495;SDS011;19836;55.812;37.560;2024-02-15T13:42:51;11.27;;;6.55;;
33495;SDS011;19836;55.812;37.560;2024-02-15T13:45:21;10.30;;;5.45;;
33495;SDS011;19836;55.812;37.560;2024-02-15T13:47:49;11.60;;;7.00;;
33495;SDS011;19836;55.812;37.560;2024-02-15T13:50:21;9.68;;;5.75;;
33495;SDS011;19836;55.812;37.560;2024-02-15T13:52:49;9.15;;;5.38;;
33495;SDS011;19836;55.812;37.560;2024-02-15T13:55:16;11.07;;;6.38;;
33495;SDS011;19836;55.812;37.560;2024-02-15T13:57:44;13.60;;;7.40;;
33495;SDS011;19836;55.812;37.560;2024-02-15T14:00:14;11.18;;;6.47;;
33495;SDS011;19836;55.812;37.560;2024-02-15T14:02:53;12.85;;;6.85;;
33495;SDS011;19836;55.812;37.560;2024-02-15T14:05:22;9.85;;;5.40;;
33495;SDS011;19836;55.812;37.560;2024-02-15T14:07:51;10.70;;;6.22;;
33495;SDS011;19836;55.812;37.560;2024-02-15T14:10:21;10.57;;;5.90;;
33495;SDS011;19836;55.812;37.560;2024-02-15T14:12:48;12.90;;;6.88;;
33495;SDS011;19836;55.812;37.560;2024-02-15T14:15:14;10.90;;;6.05;;
33495;SDS011;19836;55.812;37.560;2024-02-15T14:17:42;12.05;;;6.53;;
33495;SDS011;19836;55.812;37.560;2024-02-15T14:20:09;11.95;;;5.72;;
33495;SDS011;19836;55.812;37.560;2024-02-15T14:22:44;11.10;;;6.82;;
33495;SDS011;19836;55.812;37.560;2024-02-15T14:25:11;9.50;;;5.63;;
33495;SDS011;19836;55.812;37.560;2024-02-15T14:27:41;11.10;;;5.78;;
33495;SDS011;19836;55.812;37.560;2024-02-15T14:30:11;14.07;;;6.55;;
33495;SDS011;19836;55.812;37.560;2024-02-15T14:32:56;9.13;;;5.13;;
33495;SDS011;19836;55.812;37.560;2024-02-15T14:35:35;9.52;;;5.22;;
33495;SDS011;19836;55.812;37.560;2024-02-15T14:38:04;9.88;;;6.25;;
33495;SDS011;19836;55.812;37.560;2024-02-15T14:40:36;10.45;;;6.30;;
33495;SDS011;19836;55.812;37.560;2024-02-15T14:43:03;11.75;;;6.13;;
33495;SDS011;19836;55.812;37.560;2024-02-15T14:45:32;13.52;;;6.90;;
33495;SDS011;19836;55.812;37.560;2024-02-15T14:47:59;12.30;;;6.93;;
33495;SDS011;19836;55.812;37.560;2024-02-15T14:50:26;11.93;;;6.82;;
33495;SDS011;19836;55.812;37.560;2024-02-15T14:52:52;11.82;;;6.60;;
33495;SDS011;19836;55.812;37.560;2024-02-15T14:55:19;11.00;;;6.25;;
33495;SDS011;19836;55.812;37.560;2024-02-15T14:57:46;13.15;;;6.50;;
33495;SDS011;19836;55.812;37.560;2024-02-15T15:00:12;15.88;;;6.95;;
33495;SDS011;19836;55.812;37.560;2024-02-15T15:02:45;12.32;;;6.45;;
33495;SDS011;19836;55.812;37.560;2024-02-15T15:05:15;13.88;;;6.18;;
33495;SDS011;19836;55.812;37.560;2024-02-15T15:08:00;14.60;;;7.35;;
33495;SDS011;19836;55.812;37.560;2024-02-15T15:10:45;11.13;;;5.57;;
33495;SDS011;19836;55.812;37.560;2024-02-15T15:13:31;11.85;;;6.43;;
33495;SDS011;19836;55.812;37.560;2024-02-15T15:15:58;13.25;;;6.82;;
33495;SDS011;19836;55.812;37.560;2024-02-15T15:18:25;11.15;;;6.50;;
33495;SDS011;19836;55.812;37.560;2024-02-15T15:20:51;12.43;;;6.47;;
33495;SDS011;19836;55.812;37.560;2024-02-15T15:23:17;12.95;;;6.13;;
33495;SDS011;19836;55.812;37.560;2024-02-15T15:25:43;13.98;;;6.90;;
33495;SDS011;19836;55.812;37.560;2024-02-15T15:28:10;14.05;;;6.75;;
33495;SDS011;19836;55.812;37.560;2024-02-15T15:30:36;10.75;;;6.80;;
33495;SDS011;19836;55.812;37.560;2024-02-15T15:33:03;11.00;;;5.75;;
33495;SDS011;19836;55.812;37.560;2024-02-15T15:35:29;9.05;;;5.00;;
33495;SDS011;19836;55.812;37.560;2024-02-15T15:37:56;12.23;;;6.63;;
33495;SDS011;19836;55.812;37.560;2024-02-15T15:40:22;13.38;;;7.07;;
33495;SDS011;19836;55.812;37.560;2024-02-15T15:42:48;11.50;;;6.40;;
33495;SDS011;19836;55.812;37.560;2024-02-15T15:45:15;11.55;;;6.68;;
33495;SDS011;19836;55.812;37.560;2024-02-15T15:47:41;14.50;;;6.25;;
33495;SDS011;19836;55.812;37.560;2024-02-15T15:50:10;11.38;;;5.70;;
33495;SDS011;19836;55.812;37.560;2024-02-15T15:52:38;11.95;;;7.10;;
33495;SDS011;19836;55.812;37.560;2024-02-15T15:55:06;14.43;;;7.35;;
33495;SDS011;19836;55.812;37.560;2024-02-15T16:00:06;6.72;;;4.15;;
33495;SDS011;19836;55.812;37.560;2024-02-15T16:02:43;12.00;;;6.22;;
33495;SDS011;19836;55.812;37.560;2024-02-15T16:05:14;15.23;;;7.68;;
33495;SDS011;19836;55.812;37.560;2024-02-15T16:07:46;8.27;;;4.35;;
33495;SDS011;19836;55.812;37.560;2024-02-15T16:10:13;12.18;;;6.35;;
33495;SDS011;19836;55.812;37.560;2024-02-15T16:12:43;13.15;;;6.32;;
33495;SDS011;19836;55.812;37.560;2024-02-15T16:15:09;14.80;;;8.13;;
33495;SDS011;19836;55.812;37.560;2024-02-15T16:17:39;11.60;;;6.95;;
33495;SDS011;19836;55.812;37.560;2024-02-15T16:20:08;14.48;;;7.65;;
33495;SDS011;19836;55.812;37.560;2024-02-15T16:22:36;14.77;;;6.43;;
33495;SDS011;19836;55.812;37.560;2024-02-15T16:25:03;10.77;;;6.80;;
33495;SDS011;19836;55.812;37.560;2024-02-15T16:27:35;9.60;;;5.65;;
33495;SDS011;19836;55.812;37.560;2024-02-15T16:30:06;10.00;;;5.22;;
33495;SDS011;19836;55.812;37.560;2024-02-15T16:32:35;10.65;;;7.05;;
33495;SDS011;19836;55.812;37.560;2024-02-15T16:35:01;14.27;;;7.60;;
33495;SDS011;19836;55.812;37.560;2024-02-15T16:37:30;9.98;;;6.20;;
33495;SDS011;19836;55.812;37.560;2024-02-15T16:39:57;14.10;;;7.40;;
33495;SDS011;19836;55.812;37.560;2024-02-15T16:42:23;13.88;;;7.07;;
33495;SDS011;19836;55.812;37.560;2024-02-15T16:44:50;9.65;;;5.80;;
33495;SDS011;19836;55.812;37.560;2024-02-15T16:47:16;9.80;;;5.72;;
33495;SDS011;19836;55.812;37.560;2024-02-15T16:49:44;8.05;;;5.38;;
33495;SDS011;19836;55.812;37.560;2024-02-15T16:52:11;11.68;;;6.93;;
33495;SDS011;19836;55.812;37.560;2024-02-15T16:54:37;14.27;;;7.70;;
33495;SDS011;19836;55.812;37.560;2024-02-15T16:57:07;12.63;;;6.43;;
33495;SDS011;19836;55.812;37.560;2024-02-15T16:59:34;10.95;;;6.45;;
33495;SDS011;19836;55.812;37.560;2024-02-15T17:02:02;10.90;;;6.13;;
33495;SDS011;19836;55.812;37.560;2024-02-15T17:04:28;11.35;;;6.00;;
33495;SDS011;19836;55.812;37.560;2024-02-15T17:06:55;10.15;;;5.50;;
33495;SDS011;19836;55.812;37.560;2024-02-15T17:09:22;11.38;;;6.85;;
33495;SDS011;19836;55.812;37.560;2024-02-15T17:11:48;12.10;;;7.15;;
33495;SDS011;19836;55.812;37.560;2024-02-15T17:14:19;11.45;;;6.13;;
33495;SDS011;19836;55.812;37.560;2024-02-15T17:16:46;11.07;;;6.95;;
33495;SDS011;19836;55.812;37.560;2024-02-15T17:19:16;10.55;;;6.22;;
33495;SDS011;19836;55.812;37.560;2024-02-15T17:21:52;11.00;;;5.20;;
33495;SDS011;19836;55.812;37.560;2024-02-15T17:24:21;13.07;;;7.13;;
33495;SDS011;19836;55.812;37.560;2024-02-15T17:26:50;14.68;;;8.05;;
33495;SDS011;19836;55.812;37.560;2024-02-15T17:29:18;18.05;;;9.07;;
33495;SDS011;19836;55.812;37.560;2024-02-15T17:31:48;13.07;;;7.63;;
33495;SDS011;19836;55.812;37.560;2024-02-15T17:34:15;9.90;;;6.18;;
33495;SDS011;19836;55.812;37.560;2024-02-15T17:36:41;13.25;;;6.53;;
33495;SDS011;19836;55.812;37.560;2024-02-15T17:39:07;11.85;;;5.32;;
33495;SDS011;19836;55.812;37.560;2024-02-15T17:41:34;12.63;;;7.05;;
33495;SDS011;19836;55.812;37.560;2024-02-15T17:44:00;12.18;;;6.72;;
33495;SDS011;19836;55.812;37.560;2024-02-15T17:46:28;12.82;;;8.10;;
33495;SDS011;19836;55.812;37.560;2024-02-15T17:49:00;12.15;;;7.22;;
33495;SDS011;19836;55.812;37.560;2024-02-15T17:51:28;11.48;;;6.75;;
33495;SDS011;19836;55.812;37.560;2024-02-15T17:54:37;14.38;;;7.63;;
33495;SDS011;19836;55.812;37.560;2024-02-15T17:57:03;13.40;;;7.75;;
33495;SDS011;19836;55.812;37.560;2024-02-15T17:59:32;11.27;;;6.78;;
33495;SDS011;19836;55.812;37.560;2024-02-15T18:01:58;12.23;;;7.13;;
33495;SDS011;19836;55.812;37.560;2024-02-15T18:04:26;14.00;;;7.50;;
33495;SDS011;19836;55.812;37.560;2024-02-15T18:06:52;13.23;;;7.47;;
33495;SDS011;19836;55.812;37.560;2024-02-15T18:12:07;15.90;;;7.93;;
33495;SDS011;19836;55.812;37.560;2024-02-15T18:14:33;14.50;;;7.13;;
33495;SDS011;19836;55.812;37.560;2024-02-15T18:17:09;12.43;;;7.15;;
33495;SDS011;19836;55.812;37.560;2024-02-15T18:19:36;12.90;;;6.90;;
33495;SDS011;19836;55.812;37.560;2024-02-15T18:33:23;15.77;;;8.20;;
33495;SDS011;19836;55.812;37.560;2024-02-15T18:42:31;13.55;;;7.80;;
33495;SDS011;19836;55.812;37.560;2024-02-15T18:44:56;14.50;;;7.90;;
33495;SDS011;19836;55.812;37.560;2024-02-15T18:52:55;14.98;;;8.43;;
33495;SDS011;19836;55.812;37.560;2024-02-15T18:59:30;13.55;;;7.20;;
33495;SDS011;19836;55.812;37.560;2024-02-15T19:02:04;11.48;;;7.03;;
33495;SDS011;19836;55.812;37.560;2024-02-15T19:04:39;13.02;;;8.10;;
33495;SDS011;19836;55.812;37.560;2024-02-15T19:07:05;16.13;;;8.35;;
33495;SDS011;19836;55.812;37.560;2024-02-15T19:09:31;13.30;;;7.43;;
33495;SDS011;19836;55.812;37.560;2024-02-15T19:11:57;15.32;;;8.60;;
33495;SDS011;19836;55.812;37.560;2024-02-15T19:14:25;13.32;;;8.25;;
33495;SDS011;19836;55.812;37.560;2024-02-15T19:16:51;13.57;;;7.53;;
33495;SDS011;19836;55.812;37.560;2024-02-15T19:19:20;11.85;;;7.25;;
33495;SDS011;19836;55.812;37.560;2024-02-15T19:24:31;13.00;;;8.18;;